sensor_id;sensor_type;location;lat;lon;timestamp;temperature;humidity
44900;DHT22;30628;51.188;6.770;2024-03-17T00:01:02;8.00;99.90
44900;DHT22;30628;51.188;6.770;2024-03-17T00:03:28;8.00;99.90
44900;DHT22;30628;51.188;6.770;2024-03-17T00:06:01;8.00;99.90
44900;DHT22;30628;51.188;6.770;2024-03-17T00:08:27;7.90;99.90
44900;DHT22;30628;51.188;6.770;2024-03-17T00:10:56;7.90;99.90
44900;DHT22;30628;51.188;6.770;2024-03-17T00:13:23;7.90;99.90
44900;DHT22;30628;51.188;6.770;2024-03-17T00:15:49;7.90;99.90
44900;DHT22;30628;51.188;6.770;2024-03-17T00:18:15;7.90;99.90
44900;DHT22;30628;51.188;6.770;2024-03-17T00:20:41;7.90;99.90
44900;DHT22;30628;51.188;6.770;2024-03-17T00:23:06;7.80;99.90
44900;DHT22;30628;51.188;6.770;2024-03-17T00:25:33;7.80;99.90
44900;DHT22;30628;51.188;6.770;2024-03-17T00:28:00;7.80;99.90
44900;DHT22;30628;51.188;6.770;2024-03-17T00:30:26;7.80;99.90
44900;DHT22;30628;51.188;6.770;2024-03-17T00:32:52;7.80;99.90
44900;DHT22;30628;51.188;6.770;2024-03-17T00:35:17;7.80;99.90
44900;DHT22;30628;51.188;6.770;2024-03-17T00:37:49;7.70;99.90
44900;DHT22;30628;51.188;6.770;2024-03-17T00:40:16;7.80;99.90
44900;DHT22;30628;51.188;6.770;2024-03-17T00:42:42;7.80;99.90
44900;DHT22;30628;51.188;6.770;2024-03-17T00:45:10;7.80;99.90
44900;DHT22;30628;51.188;6.770;2024-03-17T00:47:36;7.80;99.90
44900;DHT22;30628;51.188;6.770;2024-03-17T00:50:02;7.80;99.90
44900;DHT22;30628;51.188;6.770;2024-03-17T00:52:29;7.70;99.90
44900;DHT22;30628;51.188;6.770;2024-03-17T00:54:55;7.70;99.90
44900;DHT22;30628;51.188;6.770;2024-03-17T00:57:20;7.70;99.90
44900;DHT22;30628;51.188;6.770;2024-03-17T00:59:46;7.70;99.90
44900;DHT22;30628;51.188;6.770;2024-03-17T01:02:12;7.70;99.90
44900;DHT22;30628;51.188;6.770;2024-03-17T01:04:45;7.70;99.90
44900;DHT22;30628;51.188;6.770;2024-03-17T01:07:11;7.70;99.90
44900;DHT22;30628;51.188;6.770;2024-03-17T01:09:37;7.70;99.90
44900;DHT22;30628;51.188;6.770;2024-03-17T01:12:03;7.70;99.90
44900;DHT22;30628;51.188;6.770;2024-03-17T01:14:29;7.70;99.90
44900;DHT22;30628;51.188;6.770;2024-03-17T01:16:56;7.70;99.90
44900;DHT22;30628;51.188;6.770;2024-03-17T01:19:22;7.70;99.90
44900;DHT22;30628;51.188;6.770;2024-03-17T01:21:48;7.70;99.90
44900;DHT22;30628;51.188;6.770;2024-03-17T01:24:14;7.70;99.90
44900;DHT22;30628;51.188;6.770;2024-03-17T01:26:40;7.70;99.90
44900;DHT22;30628;51.188;6.770;2024-03-17T01:29:05;7.70;99.90
44900;DHT22;30628;51.188;6.770;2024-03-17T01:31:31;7.70;99.90
44900;DHT22;30628;51.188;6.770;2024-03-17T01:33:57;7.70;99.90
44900;DHT22;30628;51.188;6.770;2024-03-17T01:36:22;7.70;99.90
44900;DHT22;30628;51.188;6.770;2024-03-17T01:38:51;7.70;99.90
44900;DHT22;30628;51.188;6.770;2024-03-17T01:41:17;7.70;99.90
44900;DHT22;30628;51.188;6.770;2024-03-17T01:43:43;7.60;99.90
44900;DHT22;30628;51.188;6.770;2024-03-17T01:46:11;7.70;99.90
44900;DHT22;30628;51.188;6.770;2024-03-17T01:48:38;7.60;99.90
44900;DHT22;30628;51.188;6.770;2024-03-17T01:51:04;7.60;99.90
44900;DHT22;30628;51.188;6.770;2024-03-17T01:53:30;7.60;99.90
44900;DHT22;30628;51.188;6.770;2024-03-17T01:55:57;7.60;99.90
44900;DHT22;30628;51.188;6.770;2024-03-17T01:58:27;7.60;99.90
44900;DHT22;30628;51.188;6.770;2024-03-17T02:00:55;7.50;99.90
44900;DHT22;30628;51.188;6.770;2024-03-17T02:03:21;7.50;99.90
44900;DHT22;30628;51.188;6.770;2024-03-17T02:05:47;7.50;99.90
44900;DHT22;30628;51.188;6.770;2024-03-17T02:08:13;7.40;99.90
44900;DHT22;30628;51.188;6.770;2024-03-17T02:10:38;7.40;99.90
44900;DHT22;30628;51.188;6.770;2024-03-17T02:13:04;7.40;99.90
44900;DHT22;30628;51.188;6.770;2024-03-17T02:15:31;7.40;99.90
44900;DHT22;30628;51.188;6.770;2024-03-17T02:17:57;7.30;99.90
44900;DHT22;30628;51.188;6.770;2024-03-17T02:20:23;7.30;99.90
44900;DHT22;30628;51.188;6.770;2024-03-17T02:23:07;7.30;99.90
44900;DHT22;30628;51.188;6.770;2024-03-17T02:25:33;7.20;99.90
44900;DHT22;30628;51.188;6.770;2024-03-17T02:27:59;7.30;99.90
44900;DHT22;30628;51.188;6.770;2024-03-17T02:30:24;7.20;99.90
44900;DHT22;30628;51.188;6.770;2024-03-17T02:32:53;7.20;99.90
44900;DHT22;30628;51.188;6.770;2024-03-17T02:35:21;7.20;99.90
44900;DHT22;30628;51.188;6.770;2024-03-17T02:37:47;7.10;99.90
44900;DHT22;30628;51.188;6.770;2024-03-17T02:40:12;7.10;99.90
44900;DHT22;30628;51.188;6.770;2024-03-17T02:42:46;7.10;99.90
44900;DHT22;30628;51.188;6.770;2024-03-17T02:45:12;7.10;99.90
44900;DHT22;30628;51.188;6.770;2024-03-17T02:47:38;7.10;99.90
44900;DHT22;30628;51.188;6.770;2024-03-17T02:50:04;7.10;99.90
44900;DHT22;30628;51.188;6.770;2024-03-17T02:52:30;7.00;99.90
44900;DHT22;30628;51.188;6.770;2024-03-17T02:54:56;7.10;99.90
44900;DHT22;30628;51.188;6.770;2024-03-17T02:57:22;7.10;99.90
44900;DHT22;30628;51.188;6.770;2024-03-17T02:59:55;7.10;99.90
44900;DHT22;30628;51.188;6.770;2024-03-17T03:02:20;7.00;99.90
44900;DHT22;30628;51.188;6.770;2024-03-17T03:04:46;7.00;99.90
44900;DHT22;30628;51.188;6.770;2024-03-17T03:07:12;7.00;99.90
44900;DHT22;30628;51.188;6.770;2024-03-17T03:09:38;7.00;99.90
44900;DHT22;30628;51.188;6.770;2024-03-17T03:12:03;7.00;99.90
44900;DHT22;30628;51.188;6.770;2024-03-17T03:14:30;7.00;99.90
44900;DHT22;30628;51.188;6.770;2024-03-17T03:16:55;7.00;99.90
44900;DHT22;30628;51.188;6.770;2024-03-17T03:19:21;7.00;99.90
44900;DHT22;30628;51.188;6.770;2024-03-17T03:21:47;7.10;99.90
44900;DHT22;30628;51.188;6.770;2024-03-17T03:24:21;7.10;99.90
44900;DHT22;30628;51.188;6.770;2024-03-17T03:26:47;7.00;99.90
44900;DHT22;30628;51.188;6.770;2024-03-17T03:29:16;7.00;99.90
44900;DHT22;30628;51.188;6.770;2024-03-17T03:31:42;7.00;99.90
44900;DHT22;30628;51.188;6.770;2024-03-17T03:34:08;7.00;99.90
44900;DHT22;30628;51.188;6.770;2024-03-17T03:36:34;7.00;99.90
44900;DHT22;30628;51.188;6.770;2024-03-17T03:39:02;7.00;99.90
44900;DHT22;30628;51.188;6.770;2024-03-17T03:41:30;7.00;99.90
44900;DHT22;30628;51.188;6.770;2024-03-17T03:43:55;7.00;99.90
44900;DHT22;30628;51.188;6.770;2024-03-17T03:46:21;7.00;99.90
44900;DHT22;30628;51.188;6.770;2024-03-17T03:48:47;7.00;99.90
44900;DHT22;30628;51.188;6.770;2024-03-17T03:51:12;7.00;99.90
44900;DHT22;30628;51.188;6.770;2024-03-17T03:53:47;7.00;99.90
44900;DHT22;30628;51.188;6.770;2024-03-17T03:56:12;7.00;99.90
44900;DHT22;30628;51.188;6.770;2024-03-17T03:58:39;6.90;99.90
44900;DHT22;30628;51.188;6.770;2024-03-17T04:01:06;6.90;99.90
44900;DHT22;30628;51.188;6.770;2024-03-17T04:03:33;6.90;99.90
44900;DHT22;30628;51.188;6.770;2024-03-17T04:08:30;6.90;99.90
44900;DHT22;30628;51.188;6.770;2024-03-17T04:10:55;6.90;99.90
44900;DHT22;30628;51.188;6.770;2024-03-17T04:13:22;6.90;99.90
44900;DHT22;30628;51.188;6.770;2024-03-17T04:15:48;6.90;99.90
44900;DHT22;30628;51.188;6.770;2024-03-17T04:18:14;6.90;99.90
44900;DHT22;30628;51.188;6.770;2024-03-17T04:20:41;6.90;99.90
44900;DHT22;30628;51.188;6.770;2024-03-17T04:23:07;6.90;99.90
44900;DHT22;30628;51.188;6.770;2024-03-17T04:25:33;6.90;99.90
44900;DHT22;30628;51.188;6.770;2024-03-17T04:27:58;6.90;99.90
44900;DHT22;30628;51.188;6.770;2024-03-17T04:30:24;6.90;99.90
44900;DHT22;30628;51.188;6.770;2024-03-17T04:32:49;6.90;99.90
44900;DHT22;30628;51.188;6.770;2024-03-17T04:35:15;7.00;99.90
44900;DHT22;30628;51.188;6.770;2024-03-17T04:37:42;7.00;99.90
44900;DHT22;30628;51.188;6.770;2024-03-17T04:40:08;6.90;99.90
44900;DHT22;30628;51.188;6.770;2024-03-17T04:42:36;6.90;99.90
44900;DHT22;30628;51.188;6.770;2024-03-17T04:45:05;7.00;99.90
44900;DHT22;30628;51.188;6.770;2024-03-17T04:47:31;7.10;99.90
44900;DHT22;30628;51.188;6.770;2024-03-17T04:49:56;7.00;99.90
44900;DHT22;30628;51.188;6.770;2024-03-17T04:52:22;7.00;99.90
44900;DHT22;30628;51.188;6.770;2024-03-17T04:54:47;6.90;99.90
44900;DHT22;30628;51.188;6.770;2024-03-17T04:57:13;7.00;99.90
44900;DHT22;30628;51.188;6.770;2024-03-17T04:59:39;7.00;99.90
44900;DHT22;30628;51.188;6.770;2024-03-17T05:02:04;7.00;99.90
44900;DHT22;30628;51.188;6.770;2024-03-17T05:04:31;7.00;99.90
44900;DHT22;30628;51.188;6.770;2024-03-17T05:06:56;7.00;99.90
44900;DHT22;30628;51.188;6.770;2024-03-17T05:09:22;7.00;99.90
44900;DHT22;30628;51.188;6.770;2024-03-17T05:11:57;7.00;99.90
44900;DHT22;30628;51.188;6.770;2024-03-17T05:14:23;7.00;99.90
44900;DHT22;30628;51.188;6.770;2024-03-17T05:16:51;7.00;99.90
44900;DHT22;30628;51.188;6.770;2024-03-17T05:19:17;6.90;99.90
44900;DHT22;30628;51.188;6.770;2024-03-17T05:21:44;6.90;99.90
44900;DHT22;30628;51.188;6.770;2024-03-17T05:24:17;6.90;99.90
44900;DHT22;30628;51.188;6.770;2024-03-17T05:26:43;6.90;99.90
44900;DHT22;30628;51.188;6.770;2024-03-17T05:29:08;6.90;99.90
44900;DHT22;30628;51.188;6.770;2024-03-17T05:31:35;6.90;99.90
44900;DHT22;30628;51.188;6.770;2024-03-17T05:34:01;6.90;99.90
44900;DHT22;30628;51.188;6.770;2024-03-17T05:36:27;6.90;99.90
44900;DHT22;30628;51.188;6.770;2024-03-17T05:38:52;6.90;99.90
44900;DHT22;30628;51.188;6.770;2024-03-17T05:41:18;6.90;99.90
44900;DHT22;30628;51.188;6.770;2024-03-17T05:43:43;6.90;99.90
44900;DHT22;30628;51.188;6.770;2024-03-17T05:46:10;6.90;99.90
44900;DHT22;30628;51.188;6.770;2024-03-17T05:48:38;6.90;99.90
44900;DHT22;30628;51.188;6.770;2024-03-17T05:51:05;6.90;99.90
44900;DHT22;30628;51.188;6.770;2024-03-17T05:53:31;6.90;99.90
44900;DHT22;30628;51.188;6.770;2024-03-17T05:56:00;6.90;99.90
44900;DHT22;30628;51.188;6.770;2024-03-17T05:58:26;6.90;99.90
44900;DHT22;30628;51.188;6.770;2024-03-17T06:00:52;6.90;99.90
44900;DHT22;30628;51.188;6.770;2024-03-17T06:03:33;6.90;99.90
44900;DHT22;30628;51.188;6.770;2024-03-17T06:06:01;7.00;99.90
44900;DHT22;30628;51.188;6.770;2024-03-17T06:08:27;7.00;99.90
44900;DHT22;30628;51.188;6.770;2024-03-17T06:10:52;6.90;99.90
44900;DHT22;30628;51.188;6.770;2024-03-17T06:13:18;7.00;99.90
44900;DHT22;30628;51.188;6.770;2024-03-17T06:15:44;7.00;99.90
44900;DHT22;30628;51.188;6.770;2024-03-17T06:18:14;7.00;99.90
44900;DHT22;30628;51.188;6.770;2024-03-17T06:21:00;7.10;99.90
44900;DHT22;30628;51.188;6.770;2024-03-17T06:23:26;7.10;99.90
44900;DHT22;30628;51.188;6.770;2024-03-17T06:25:54;7.10;99.90
44900;DHT22;30628;51.188;6.770;2024-03-17T06:28:23;7.10;99.90
44900;DHT22;30628;51.188;6.770;2024-03-17T06:30:57;7.20;99.90
44900;DHT22;30628;51.188;6.770;2024-03-17T06:33:26;7.20;99.90
44900;DHT22;30628;51.188;6.770;2024-03-17T06:35:53;7.20;99.90
44900;DHT22;30628;51.188;6.770;2024-03-17T06:38:33;7.30;99.90
44900;DHT22;30628;51.188;6.770;2024-03-17T06:40:59;7.30;99.90
44900;DHT22;30628;51.188;6.770;2024-03-17T06:43:24;7.30;99.90
44900;DHT22;30628;51.188;6.770;2024-03-17T06:46:00;7.40;99.90
44900;DHT22;30628;51.188;6.770;2024-03-17T06:48:26;7.50;99.90
44900;DHT22;30628;51.188;6.770;2024-03-17T06:50:53;7.50;99.90
44900;DHT22;30628;51.188;6.770;2024-03-17T06:53:20;7.60;99.90
44900;DHT22;30628;51.188;6.770;2024-03-17T06:55:56;7.60;99.90
44900;DHT22;30628;51.188;6.770;2024-03-17T06:58:23;7.70;99.90
44900;DHT22;30628;51.188;6.770;2024-03-17T07:01:08;7.80;99.90
44900;DHT22;30628;51.188;6.770;2024-03-17T07:03:34;7.80;99.90
44900;DHT22;30628;51.188;6.770;2024-03-17T07:06:01;7.90;99.90
44900;DHT22;30628;51.188;6.770;2024-03-17T07:08:29;7.90;99.90
44900;DHT22;30628;51.188;6.770;2024-03-17T07:13:24;8.00;99.90
44900;DHT22;30628;51.188;6.770;2024-03-17T07:15:50;8.10;99.90
44900;DHT22;30628;51.188;6.770;2024-03-17T07:18:15;8.00;99.90
44900;DHT22;30628;51.188;6.770;2024-03-17T07:20:50;7.90;99.90
44900;DHT22;30628;51.188;6.770;2024-03-17T07:23:18;7.90;99.90
44900;DHT22;30628;51.188;6.770;2024-03-17T07:25:55;8.00;99.90
44900;DHT22;30628;51.188;6.770;2024-03-17T07:28:21;8.00;99.90
44900;DHT22;30628;51.188;6.770;2024-03-17T07:30:54;7.90;99.90
44900;DHT22;30628;51.188;6.770;2024-03-17T07:33:20;8.00;99.90
44900;DHT22;30628;51.188;6.770;2024-03-17T07:35:56;8.10;99.90
44900;DHT22;30628;51.188;6.770;2024-03-17T07:38:27;8.20;99.90
44900;DHT22;30628;51.188;6.770;2024-03-17T07:41:10;8.30;99.90
44900;DHT22;30628;51.188;6.770;2024-03-17T07:43:38;8.40;99.90
44900;DHT22;30628;51.188;6.770;2024-03-17T07:46:05;8.70;99.90
44900;DHT22;30628;51.188;6.770;2024-03-17T07:48:33;8.70;99.90
44900;DHT22;30628;51.188;6.770;2024-03-17T07:51:09;9.00;99.90
44900;DHT22;30628;51.188;6.770;2024-03-17T07:53:37;9.10;99.90
44900;DHT22;30628;51.188;6.770;2024-03-17T07:56:11;9.20;99.90
44900;DHT22;30628;51.188;6.770;2024-03-17T07:58:38;9.20;99.90
44900;DHT22;30628;51.188;6.770;2024-03-17T08:01:09;9.30;99.90
44900;DHT22;30628;51.188;6.770;2024-03-17T08:03:46;9.30;99.90
44900;DHT22;30628;51.188;6.770;2024-03-17T08:06:12;9.40;99.90
44900;DHT22;30628;51.188;6.770;2024-03-17T08:08:38;9.50;99.90
44900;DHT22;30628;51.188;6.770;2024-03-17T08:11:03;9.60;99.90
44900;DHT22;30628;51.188;6.770;2024-03-17T08:13:30;9.60;99.90
44900;DHT22;30628;51.188;6.770;2024-03-17T08:16:06;9.70;99.90
44900;DHT22;30628;51.188;6.770;2024-03-17T08:18:32;9.70;99.90
44900;DHT22;30628;51.188;6.770;2024-03-17T08:21:00;9.70;99.90
44900;DHT22;30628;51.188;6.770;2024-03-17T08:23:26;9.70;99.90
44900;DHT22;30628;51.188;6.770;2024-03-17T08:25:56;9.70;99.90
44900;DHT22;30628;51.188;6.770;2024-03-17T08:28:23;9.80;99.90
44900;DHT22;30628;51.188;6.770;2024-03-17T08:30:59;9.90;99.90
44900;DHT22;30628;51.188;6.770;2024-03-17T08:33:26;10.00;99.90
44900;DHT22;30628;51.188;6.770;2024-03-17T08:38:23;10.20;99.90
44900;DHT22;30628;51.188;6.770;2024-03-17T08:40:53;10.30;99.90
44900;DHT22;30628;51.188;6.770;2024-03-17T08:43:19;10.40;99.90
44900;DHT22;30628;51.188;6.770;2024-03-17T08:45:54;10.40;99.90
44900;DHT22;30628;51.188;6.770;2024-03-17T08:48:20;10.50;99.90
44900;DHT22;30628;51.188;6.770;2024-03-17T08:50:55;10.60;99.90
44900;DHT22;30628;51.188;6.770;2024-03-17T08:53:21;10.70;99.90
44900;DHT22;30628;51.188;6.770;2024-03-17T08:55:47;10.80;99.90
44900;DHT22;30628;51.188;6.770;2024-03-17T08:58:13;10.90;99.90
44900;DHT22;30628;51.188;6.770;2024-03-17T09:00:39;10.90;99.90
44900;DHT22;30628;51.188;6.770;2024-03-17T09:03:06;11.10;99.90
44900;DHT22;30628;51.188;6.770;2024-03-17T09:05:35;11.20;99.90
44900;DHT22;30628;51.188;6.770;2024-03-17T09:08:01;11.10;99.90
44900;DHT22;30628;51.188;6.770;2024-03-17T09:10:26;11.20;99.90
44900;DHT22;30628;51.188;6.770;2024-03-17T09:12:52;11.20;99.90
44900;DHT22;30628;51.188;6.770;2024-03-17T09:15:18;11.30;99.90
44900;DHT22;30628;51.188;6.770;2024-03-17T09:17:43;11.40;99.90
44900;DHT22;30628;51.188;6.770;2024-03-17T09:20:11;11.40;99.90
44900;DHT22;30628;51.188;6.770;2024-03-17T09:22:38;11.60;99.90
44900;DHT22;30628;51.188;6.770;2024-03-17T09:25:07;11.60;99.90
44900;DHT22;30628;51.188;6.770;2024-03-17T09:27:34;11.60;99.90
44900;DHT22;30628;51.188;6.770;2024-03-17T09:30:03;11.70;99.90
44900;DHT22;30628;51.188;6.770;2024-03-17T09:32:31;11.70;99.90
44900;DHT22;30628;51.188;6.770;2024-03-17T09:34:56;11.60;99.90
44900;DHT22;30628;51.188;6.770;2024-03-17T09:37:22;11.70;99.90
44900;DHT22;30628;51.188;6.770;2024-03-17T09:39:51;11.80;99.90
44900;DHT22;30628;51.188;6.770;2024-03-17T09:42:18;11.90;99.90
44900;DHT22;30628;51.188;6.770;2024-03-17T09:44:48;12.00;99.90
44900;DHT22;30628;51.188;6.770;2024-03-17T09:47:26;12.20;99.90
44900;DHT22;30628;51.188;6.770;2024-03-17T09:49:54;12.20;99.90
44900;DHT22;30628;51.188;6.770;2024-03-17T09:52:24;12.30;99.90
44900;DHT22;30628;51.188;6.770;2024-03-17T09:55:16;12.30;99.90
44900;DHT22;30628;51.188;6.770;2024-03-17T09:57:50;12.20;99.90
44900;DHT22;30628;51.188;6.770;2024-03-17T10:00:16;12.30;99.90
44900;DHT22;30628;51.188;6.770;2024-03-17T10:05:23;12.40;99.90
44900;DHT22;30628;51.188;6.770;2024-03-17T10:07:50;12.50;99.90
44900;DHT22;30628;51.188;6.770;2024-03-17T10:10:17;12.50;99.90
44900;DHT22;30628;51.188;6.770;2024-03-17T10:12:43;12.60;99.90
44900;DHT22;30628;51.188;6.770;2024-03-17T10:15:12;12.70;99.90
44900;DHT22;30628;51.188;6.770;2024-03-17T10:17:38;12.70;99.90
44900;DHT22;30628;51.188;6.770;2024-03-17T10:20:21;12.80;99.90
44900;DHT22;30628;51.188;6.770;2024-03-17T10:23:04;12.80;99.90
44900;DHT22;30628;51.188;6.770;2024-03-17T10:25:36;13.00;99.90
44900;DHT22;30628;51.188;6.770;2024-03-17T10:28:13;13.00;99.90
44900;DHT22;30628;51.188;6.770;2024-03-17T10:30:39;13.00;99.90
44900;DHT22;30628;51.188;6.770;2024-03-17T10:33:06;13.10;99.90
44900;DHT22;30628;51.188;6.770;2024-03-17T10:35:37;13.10;99.90
44900;DHT22;30628;51.188;6.770;2024-03-17T10:38:09;13.20;99.90
44900;DHT22;30628;51.188;6.770;2024-03-17T10:40:35;13.30;99.90
44900;DHT22;30628;51.188;6.770;2024-03-17T10:43:05;13.40;99.90
44900;DHT22;30628;51.188;6.770;2024-03-17T10:45:32;13.30;99.90
44900;DHT22;30628;51.188;6.770;2024-03-17T10:48:03;13.40;99.90
44900;DHT22;30628;51.188;6.770;2024-03-17T10:50:31;13.40;99.90
44900;DHT22;30628;51.188;6.770;2024-03-17T10:53:02;13.40;99.90
44900;DHT22;30628;51.188;6.770;2024-03-17T10:55:32;13.40;99.90
44900;DHT22;30628;51.188;6.770;2024-03-17T10:58:03;13.50;99.90
44900;DHT22;30628;51.188;6.770;2024-03-17T11:00:30;13.50;99.90
44900;DHT22;30628;51.188;6.770;2024-03-17T11:02:57;13.40;99.90
44900;DHT22;30628;51.188;6.770;2024-03-17T11:05:25;13.50;99.90
44900;DHT22;30628;51.188;6.770;2024-03-17T11:07:52;13.40;99.90
44900;DHT22;30628;51.188;6.770;2024-03-17T11:10:21;13.50;99.90
44900;DHT22;30628;51.188;6.770;2024-03-17T11:12:57;13.50;99.90
44900;DHT22;30628;51.188;6.770;2024-03-17T11:20:40;13.80;99.90
44900;DHT22;30628;51.188;6.770;2024-03-17T11:23:06;13.90;99.90
44900;DHT22;30628;51.188;6.770;2024-03-17T11:28:03;14.10;99.90
44900;DHT22;30628;51.188;6.770;2024-03-17T11:39:13;14.10;99.90
44900;DHT22;30628;51.188;6.770;2024-03-17T11:41:53;14.20;99.90
44900;DHT22;30628;51.188;6.770;2024-03-17T11:46:55;14.30;99.90
44900;DHT22;30628;51.188;6.770;2024-03-17T11:49:47;14.40;99.90
44900;DHT22;30628;51.188;6.770;2024-03-17T11:52:14;14.40;99.90
44900;DHT22;30628;51.188;6.770;2024-03-17T11:54:49;14.50;99.90
44900;DHT22;30628;51.188;6.770;2024-03-17T11:57:24;14.60;99.90
44900;DHT22;30628;51.188;6.770;2024-03-17T11:59:52;14.70;99.90
44900;DHT22;30628;51.188;6.770;2024-03-17T12:04:44;14.80;99.90
44900;DHT22;30628;51.188;6.770;2024-03-17T12:07:18;14.90;99.90
44900;DHT22;30628;51.188;6.770;2024-03-17T12:09:52;15.00;99.90
44900;DHT22;30628;51.188;6.770;2024-03-17T12:14:50;15.00;99.90
44900;DHT22;30628;51.188;6.770;2024-03-17T12:17:23;15.10;99.90
44900;DHT22;30628;51.188;6.770;2024-03-17T12:19:49;15.10;99.90
44900;DHT22;30628;51.188;6.770;2024-03-17T12:22:21;15.10;99.90
44900;DHT22;30628;51.188;6.770;2024-03-17T12:24:53;15.10;99.90
44900;DHT22;30628;51.188;6.770;2024-03-17T12:27:19;15.10;99.90
44900;DHT22;30628;51.188;6.770;2024-03-17T12:29:47;15.10;99.90
44900;DHT22;30628;51.188;6.770;2024-03-17T12:32:24;15.10;99.90
44900;DHT22;30628;51.188;6.770;2024-03-17T12:34:54;15.00;99.90
44900;DHT22;30628;51.188;6.770;2024-03-17T12:37:24;15.00;99.90
44900;DHT22;30628;51.188;6.770;2024-03-17T12:39:59;15.10;99.90
44900;DHT22;30628;51.188;6.770;2024-03-17T12:42:26;15.20;99.90
44900;DHT22;30628;51.188;6.770;2024-03-17T12:44:59;15.20;99.90
44900;DHT22;30628;51.188;6.770;2024-03-17T12:47:30;15.20;99.90
44900;DHT22;30628;51.188;6.770;2024-03-17T12:49:59;15.20;99.90
44900;DHT22;30628;51.188;6.770;2024-03-17T12:55:07;15.40;99.90
44900;DHT22;30628;51.188;6.770;2024-03-17T12:58:05;15.40;99.90
44900;DHT22;30628;51.188;6.770;2024-03-17T13:03:33;15.40;99.90
44900;DHT22;30628;51.188;6.770;2024-03-17T13:06:03;15.40;99.90
44900;DHT22;30628;51.188;6.770;2024-03-17T13:08:31;15.50;99.90
44900;DHT22;30628;51.188;6.770;2024-03-17T13:11:00;15.50;99.90
44900;DHT22;30628;51.188;6.770;2024-03-17T13:13:29;15.50;99.90
44900;DHT22;30628;51.188;6.770;2024-03-17T13:15:54;15.60;99.90
44900;DHT22;30628;51.188;6.770;2024-03-17T13:18:20;15.60;99.90
44900;DHT22;30628;51.188;6.770;2024-03-17T13:20:47;15.60;99.90
44900;DHT22;30628;51.188;6.770;2024-03-17T13:23:15;15.60;99.90
44900;DHT22;30628;51.188;6.770;2024-03-17T13:25:40;15.50;99.90
44900;DHT22;30628;51.188;6.770;2024-03-17T13:28:08;15.50;99.90
44900;DHT22;30628;51.188;6.770;2024-03-17T13:30:34;15.50;99.90
44900;DHT22;30628;51.188;6.770;2024-03-17T13:33:02;15.50;99.90
44900;DHT22;30628;51.188;6.770;2024-03-17T13:35:33;15.50;99.90
44900;DHT22;30628;51.188;6.770;2024-03-17T13:38:00;15.50;99.90
44900;DHT22;30628;51.188;6.770;2024-03-17T13:40:28;15.50;99.90
44900;DHT22;30628;51.188;6.770;2024-03-17T13:42:55;15.40;99.90
44900;DHT22;30628;51.188;6.770;2024-03-17T13:45:22;15.30;99.90
44900;DHT22;30628;51.188;6.770;2024-03-17T13:48:02;15.30;99.90
44900;DHT22;30628;51.188;6.770;2024-03-17T13:50:29;15.30;99.90
44900;DHT22;30628;51.188;6.770;2024-03-17T13:52:56;15.30;99.90
44900;DHT22;30628;51.188;6.770;2024-03-17T13:55:23;15.30;99.90
44900;DHT22;30628;51.188;6.770;2024-03-17T13:57:58;15.30;99.90
44900;DHT22;30628;51.188;6.770;2024-03-17T14:00:28;15.30;99.90
44900;DHT22;30628;51.188;6.770;2024-03-17T14:02:55;15.30;99.90
44900;DHT22;30628;51.188;6.770;2024-03-17T14:05:25;15.40;99.90
44900;DHT22;30628;51.188;6.770;2024-03-17T14:07:52;15.40;99.90
44900;DHT22;30628;51.188;6.770;2024-03-17T14:10:26;15.40;99.90
44900;DHT22;30628;51.188;6.770;2024-03-17T14:12:52;15.40;99.90
44900;DHT22;30628;51.188;6.770;2024-03-17T14:15:19;15.50;99.90
44900;DHT22;30628;51.188;6.770;2024-03-17T14:18:00;15.40;99.90
44900;DHT22;30628;51.188;6.770;2024-03-17T14:20:26;15.40;99.90
44900;DHT22;30628;51.188;6.770;2024-03-17T14:22:51;15.50;99.90
44900;DHT22;30628;51.188;6.770;2024-03-17T14:25:22;15.50;99.90
44900;DHT22;30628;51.188;6.770;2024-03-17T14:27:48;15.60;99.90
44900;DHT22;30628;51.188;6.770;2024-03-17T14:30:16;15.60;99.90
44900;DHT22;30628;51.188;6.770;2024-03-17T14:32:42;15.70;99.90
44900;DHT22;30628;51.188;6.770;2024-03-17T14:35:13;15.60;99.90
44900;DHT22;30628;51.188;6.770;2024-03-17T14:37:39;15.60;99.90
44900;DHT22;30628;51.188;6.770;2024-03-17T14:40:08;15.60;99.90
44900;DHT22;30628;51.188;6.770;2024-03-17T14:42:54;15.50;99.90
44900;DHT22;30628;51.188;6.770;2024-03-17T14:45:23;15.50;99.90
44900;DHT22;30628;51.188;6.770;2024-03-17T14:47:49;15.50;99.90
44900;DHT22;30628;51.188;6.770;2024-03-17T14:50:15;15.60;99.90
44900;DHT22;30628;51.188;6.770;2024-03-17T14:52:44;15.60;99.90
44900;DHT22;30628;51.188;6.770;2024-03-17T14:55:10;15.50;99.90
44900;DHT22;30628;51.188;6.770;2024-03-17T14:57:37;15.60;99.90
44900;DHT22;30628;51.188;6.770;2024-03-17T15:00:06;15.60;99.90
44900;DHT22;30628;51.188;6.770;2024-03-17T15:02:42;15.60;99.90
44900;DHT22;30628;51.188;6.770;2024-03-17T15:05:08;15.60;99.90
44900;DHT22;30628;51.188;6.770;2024-03-17T15:07:34;15.70;99.90
44900;DHT22;30628;51.188;6.770;2024-03-17T15:10:00;15.60;99.90
44900;DHT22;30628;51.188;6.770;2024-03-17T15:12:26;15.60;99.90
44900;DHT22;30628;51.188;6.770;2024-03-17T15:14:51;15.70;99.90
44900;DHT22;30628;51.188;6.770;2024-03-17T15:17:17;15.60;99.90
44900;DHT22;30628;51.188;6.770;2024-03-17T15:19:46;15.60;99.90
44900;DHT22;30628;51.188;6.770;2024-03-17T15:22:12;15.60;99.90
44900;DHT22;30628;51.188;6.770;2024-03-17T15:24:37;15.60;99.90
44900;DHT22;30628;51.188;6.770;2024-03-17T15:27:03;15.60;99.90
44900;DHT22;30628;51.188;6.770;2024-03-17T15:29:29;15.60;99.90
44900;DHT22;30628;51.188;6.770;2024-03-17T15:31:54;15.50;99.90
44900;DHT22;30628;51.188;6.770;2024-03-17T15:34:22;15.50;99.90
44900;DHT22;30628;51.188;6.770;2024-03-17T15:36:48;15.50;99.90
44900;DHT22;30628;51.188;6.770;2024-03-17T15:39:22;15.40;99.90
44900;DHT22;30628;51.188;6.770;2024-03-17T15:41:48;15.40;99.90
44900;DHT22;30628;51.188;6.770;2024-03-17T15:44:14;15.30;99.90
44900;DHT22;30628;51.188;6.770;2024-03-17T15:46:41;15.40;99.90
44900;DHT22;30628;51.188;6.770;2024-03-17T15:49:07;15.30;99.90
44900;DHT22;30628;51.188;6.770;2024-03-17T15:51:32;15.30;99.90
44900;DHT22;30628;51.188;6.770;2024-03-17T15:53:58;15.30;99.90
44900;DHT22;30628;51.188;6.770;2024-03-17T15:56:24;15.20;99.90
44900;DHT22;30628;51.188;6.770;2024-03-17T15:58:49;15.20;99.90
44900;DHT22;30628;51.188;6.770;2024-03-17T16:01:18;15.20;99.90
44900;DHT22;30628;51.188;6.770;2024-03-17T16:03:44;15.20;99.90
44900;DHT22;30628;51.188;6.770;2024-03-17T16:06:16;15.20;99.90
44900;DHT22;30628;51.188;6.770;2024-03-17T16:08:47;15.20;99.90
44900;DHT22;30628;51.188;6.770;2024-03-17T16:11:16;15.20;99.90
44900;DHT22;30628;51.188;6.770;2024-03-17T16:13:47;15.20;99.90
44900;DHT22;30628;51.188;6.770;2024-03-17T16:16:17;15.20;99.90
44900;DHT22;30628;51.188;6.770;2024-03-17T16:18:43;15.20;99.90
44900;DHT22;30628;51.188;6.770;2024-03-17T16:21:19;15.10;99.90
44900;DHT22;30628;51.188;6.770;2024-03-17T16:24:02;15.10;99.90
44900;DHT22;30628;51.188;6.770;2024-03-17T16:26:30;15.10;99.90